Pacific Solarelle — V7UB8 — position and weather

sailwx.info

Track history (hours):
 
Tides and Currents Weather Stations Pressure Air Temp Water Temp Dewpoint Dewpoint Depression Visibility Wind Speed Wind Dir Waves Ship Positions

Pacific Solarelle

Last reported at 2014-Sep-18 11:32 UTC. Time now 2014-Sep-19 11:52 UTC.
Position N 43°39' W 070°16'.

Length 180 m; draft 9.8 m.

Type: Tanker. MMSI: 538003925.

Date/timePositionNaut miles runAvg speedWind from/ knotsBaromVisibWave heightAir tempDewpointWater temp
2014-Sep-18 11:32N 43°39' W 070°16'1 0.6
2014-Sep-18 10:08N 43°38' W 070°17'0 0.0
2014-Sep-18 07:26N 43°38' W 070°17'0 0.0
2014-Sep-18 06:26N 43°38' W 070°17'0 0.0
2014-Sep-18 05:26N 43°38' W 070°17'0 0.0
2014-Sep-18 04:26N 43°38' W 070°17'0 0.0
2014-Sep-17 17:08N 43°38' W 070°17'2 4.2
2014-Sep-17 16:33N 43°40' W 070°14'8 8.3
2014-Sep-17 15:33N 43°33' W 070°07'1110.6
2014-Sep-17 14:33N 43°30' W 069°53'  
2014-Sep-13 10:11N 41°49' W 069°38'710.2
2014-Sep-13 09:33N 41°43' W 069°34'9 9.5
2014-Sep-13 08:33N 41°35' W 069°29'10 9.6
2014-Sep-13 07:34N 41°26' W 069°23'1110.5
2014-Sep-13 06:33N 41°17' W 069°17'1210.1
2014-Sep-13 05:24N 41°07' W 069°09'1112.3
2014-Sep-13 04:33N 40°57' W 069°03'1212.4
2014-Sep-13 03:34N 40°46' W 068°56'1211.3
2014-Sep-13 02:32N 40°36' W 069°03'2210.9
2014-Sep-13 00:34N 40°27' W 069°29'1211.6
2014-Sep-12 23:33N 40°26' W 069°44'1212.0
2014-Sep-12 22:34N 40°25' W 069°60'1312.5
2014-Sep-12 21:33N 40°25' W 070°16'1312.5
2014-Sep-12 20:33N 40°25' W 070°33'1312.6
2014-Sep-12 19:32N 40°24' W 070°50'1111.3
2014-Sep-12 18:34N 40°32' W 071°00'1313.0
2014-Sep-12 17:34N 40°43' W 071°09'1312.9
2014-Sep-12 16:34N 40°54' W 071°17'1312.7
2014-Sep-12 15:34N 41°06' W 071°25'1211.9
2014-Sep-12 14:34N 41°16' W 071°33'9 8.8
2014-Sep-12 13:34N 41°16' W 071°44'1312.9
2014-Sep-12 12:34N 41°14' W 072°01'1414.0
2014-Sep-12 11:33N 41°11' W 072°19'1414.2
2014-Sep-12 10:33N 41°10' W 072°38'1111.5
2014-Sep-12 09:33N 41°12' W 072°53'6 0.7
2014-Sep-12 01:26N 41°17' W 072°55'0 0.0
2014-Sep-11 17:11N 41°17' W 072°55'0 0.2
2014-Sep-11 16:33N 41°17' W 072°55'6 5.8
2014-Sep-11 15:31N 41°12' W 072°51'0 0.0
2014-Sep-11 14:31N 41°12' W 072°51'0 0.0
2014-Sep-11 13:31N 41°12' W 072°51'0 0.1
2014-Sep-11 12:31N 41°12' W 072°51'0 0.0
2014-Sep-11 11:31N 41°12' W 072°51'0 0.0
2014-Sep-11 10:31N 41°12' W 072°51'0 0.0
2014-Sep-11 09:31N 41°12' W 072°51'0 0.0
2014-Sep-11 08:31N 41°12' W 072°51'0 0.0
2014-Sep-11 07:31N 41°12' W 072°51'0 0.0
2014-Sep-11 06:31N 41°12' W 072°51'0 0.0
2014-Sep-11 05:31N 41°12' W 072°51'0 0.1
2014-Sep-11 04:31N 41°12' W 072°51'0 0.0
2014-Sep-11 03:31N 41°12' W 072°51'2 2.0
2014-Sep-11 02:33N 41°11' W 072°49'1413.7
2014-Sep-11 01:33N 41°08' W 072°31'1414.5
2014-Sep-11 00:33N 41°12' W 072°13'1313.3
2014-Sep-10 23:33N 41°15' W 071°55'1212.4
2014-Sep-10 22:33N 41°17' W 071°39'1010.5
2014-Sep-10 21:34N 41°18' W 071°25'1110.9
2014-Sep-10 20:33N 41°29' W 071°21'1212.1
2014-Sep-10 19:33N 41°41' W 071°19'8 8.2
2014-Sep-10 18:33N 41°48' W 071°23'0 0.1
2014-Sep-10 16:32N 41°48' W 071°24'0 0.0
2014-Sep-10 15:32N 41°48' W 071°24'0 0.0
2014-Sep-10 14:32N 41°48' W 071°24'0 0.0
2014-Sep-10 13:32N 41°48' W 071°24'0 0.0
2014-Sep-10 12:32N 41°48' W 071°24'0 0.0
2014-Sep-10 11:32N 41°48' W 071°24'0 0.0
2014-Sep-10 10:32N 41°48' W 071°24'0 0.0
2014-Sep-10 09:32N 41°48' W 071°24'0 0.0
2014-Sep-10 08:26N 41°48' W 071°24'0 0.0
2014-Sep-10 07:32N 41°48' W 071°24'0 0.0
2014-Sep-10 06:32N 41°48' W 071°24'0 0.0
2014-Sep-10 05:32N 41°48' W 071°24'0 0.0
2014-Sep-10 04:32N 41°48' W 071°24'0 0.0
2014-Sep-10 03:32N 41°48' W 071°24'0 0.0
2014-Sep-10 02:32N 41°48' W 071°24'0 0.0
2014-Sep-10 01:32N 41°48' W 071°24'0 0.0
2014-Sep-10 00:32N 41°48' W 071°24'0 0.0
2014-Sep-09 23:32N 41°48' W 071°24'0 0.0
2014-Sep-09 22:32N 41°48' W 071°24'0 0.0
2014-Sep-09 21:32N 41°48' W 071°24'0 0.0
2014-Sep-09 20:26N 41°48' W 071°24'0 0.0
2014-Sep-09 19:08N 41°48' W 071°24'0 0.0
2014-Sep-09 18:32N 41°48' W 071°24'0 0.0
2014-Sep-09 16:26N 41°48' W 071°24'0 0.0
2014-Sep-09 15:32N 41°48' W 071°24'0 0.0
2014-Sep-09 14:08N 41°48' W 071°24'1 1.5
2014-Sep-09 13:33N 41°48' W 071°23'8 8.0
2014-Sep-09 12:34N 41°40' W 071°19'1111.1
2014-Sep-09 11:33N 41°29' W 071°21'9 9.0
2014-Sep-09 10:33N 41°20' W 071°21'7 7.4
2014-Sep-09 09:33N 41°13' W 071°21'6 6.2
2014-Sep-09 08:33N 41°07' W 071°21'6 6.1
2014-Sep-09 07:33N 41°01' W 071°20'9 9.0
2014-Sep-09 06:33N 40°52' W 071°17'6 6.5
2014-Sep-09 05:33N 40°45' W 071°17'7 6.6
2014-Sep-09 04:33N 40°39' W 071°16'7 7.0
2014-Sep-09 03:33N 40°32' W 071°12'1111.2
2014-Sep-09 02:33N 40°32' W 070°58'1110.9
2014-Sep-09 01:33N 40°33' W 070°43'1111.0
2014-Sep-09 00:33N 40°34' W 070°29'9 8.8
2014-Sep-08 23:33N 40°34' W 070°17'1211.7
2014-Sep-08 22:33N 40°34' W 070°02'1212.2
2014-Sep-08 21:33N 40°35' W 069°46'1312.6
2014-Sep-08 20:33N 40°34' W 069°30'1212.3
2014-Sep-08 19:33N 40°37' W 069°14'1312.9
2014-Sep-08 18:33N 40°47' W 069°03'1010.3
2014-Sep-08 17:33N 40°56' W 069°08'1110.8
2014-Sep-08 16:33N 41°06' W 069°14'1111.0
2014-Sep-08 15:33N 41°16' W 069°21'1010.0
2014-Sep-08 14:33N 41°25' W 069°26'10 9.5
2014-Sep-08 13:31N 41°33' W 069°33'9 9.3
2014-Sep-08 12:33N 41°42' W 069°38'10 9.8
2014-Sep-08 11:33N 41°50' W 069°44'  
Track history (hours):
 
Tides and Currents Weather Stations Pressure Air Temp Water Temp Dewpoint Dewpoint Depression Visibility Wind Speed Wind Dir Waves Ship Positions

Pacific Solarelle

Last reported at 2014-Sep-18 11:32 UTC. Time now 2014-Sep-19 11:52 UTC.
Position N 43°39' W 070°16'.

Length 180 m; draft 9.8 m.

Type: Tanker. MMSI: 538003925.

Date/timePositionNaut miles runAvg speedWind from/ knotsBaromVisibWave heightAir tempDewpointWater temp
2014-Sep-18 11:32N 43°39' W 070°16'1 0.6
2014-Sep-18 10:08N 43°38' W 070°17'0 0.0
2014-Sep-18 07:26N 43°38' W 070°17'0 0.0
2014-Sep-18 06:26N 43°38' W 070°17'0 0.0
2014-Sep-18 05:26N 43°38' W 070°17'0 0.0
2014-Sep-18 04:26N 43°38' W 070°17'0 0.0
2014-Sep-17 17:08N 43°38' W 070°17'2 4.2
2014-Sep-17 16:33N 43°40' W 070°14'8 8.3
2014-Sep-17 15:33N 43°33' W 070°07'1110.6
2014-Sep-17 14:33N 43°30' W 069°53'  
2014-Sep-13 10:11N 41°49' W 069°38'710.2
2014-Sep-13 09:33N 41°43' W 069°34'9 9.5
2014-Sep-13 08:33N 41°35' W 069°29'10 9.6
2014-Sep-13 07:34N 41°26' W 069°23'1110.5
2014-Sep-13 06:33N 41°17' W 069°17'1210.1
2014-Sep-13 05:24N 41°07' W 069°09'1112.3
2014-Sep-13 04:33N 40°57' W 069°03'1212.4
2014-Sep-13 03:34N 40°46' W 068°56'1211.3
2014-Sep-13 02:32N 40°36' W 069°03'2210.9
2014-Sep-13 00:34N 40°27' W 069°29'1211.6
2014-Sep-12 23:33N 40°26' W 069°44'1212.0
2014-Sep-12 22:34N 40°25' W 069°60'1312.5
2014-Sep-12 21:33N 40°25' W 070°16'1312.5
2014-Sep-12 20:33N 40°25' W 070°33'1312.6
2014-Sep-12 19:32N 40°24' W 070°50'1111.3
2014-Sep-12 18:34N 40°32' W 071°00'1313.0
2014-Sep-12 17:34N 40°43' W 071°09'1312.9
2014-Sep-12 16:34N 40°54' W 071°17'1312.7
2014-Sep-12 15:34N 41°06' W 071°25'1211.9
2014-Sep-12 14:34N 41°16' W 071°33'9 8.8
2014-Sep-12 13:34N 41°16' W 071°44'1312.9
2014-Sep-12 12:34N 41°14' W 072°01'1414.0
2014-Sep-12 11:33N 41°11' W 072°19'1414.2
2014-Sep-12 10:33N 41°10' W 072°38'1111.5
2014-Sep-12 09:33N 41°12' W 072°53'6 0.7
2014-Sep-12 01:26N 41°17' W 072°55'0 0.0
2014-Sep-11 17:11N 41°17' W 072°55'0 0.2
2014-Sep-11 16:33N 41°17' W 072°55'6 5.8
2014-Sep-11 15:31N 41°12' W 072°51'0 0.0
2014-Sep-11 14:31N 41°12' W 072°51'0 0.0
2014-Sep-11 13:31N 41°12' W 072°51'0 0.1
2014-Sep-11 12:31N 41°12' W 072°51'0 0.0
2014-Sep-11 11:31N 41°12' W 072°51'0 0.0
2014-Sep-11 10:31N 41°12' W 072°51'0 0.0
2014-Sep-11 09:31N 41°12' W 072°51'0 0.0
2014-Sep-11 08:31N 41°12' W 072°51'0 0.0
2014-Sep-11 07:31N 41°12' W 072°51'0 0.0
2014-Sep-11 06:31N 41°12' W 072°51'0 0.0
2014-Sep-11 05:31N 41°12' W 072°51'0 0.1
2014-Sep-11 04:31N 41°12' W 072°51'0 0.0
2014-Sep-11 03:31N 41°12' W 072°51'2 2.0
2014-Sep-11 02:33N 41°11' W 072°49'1413.7
2014-Sep-11 01:33N 41°08' W 072°31'1414.5
2014-Sep-11 00:33N 41°12' W 072°13'1313.3
2014-Sep-10 23:33N 41°15' W 071°55'1212.4
2014-Sep-10 22:33N 41°17' W 071°39'1010.5
2014-Sep-10 21:34N 41°18' W 071°25'1110.9
2014-Sep-10 20:33N 41°29' W 071°21'1212.1
2014-Sep-10 19:33N 41°41' W 071°19'8 8.2
2014-Sep-10 18:33N 41°48' W 071°23'0 0.1
2014-Sep-10 16:32N 41°48' W 071°24'0 0.0
2014-Sep-10 15:32N 41°48' W 071°24'0 0.0
2014-Sep-10 14:32N 41°48' W 071°24'0 0.0
2014-Sep-10 13:32N 41°48' W 071°24'0 0.0
2014-Sep-10 12:32N 41°48' W 071°24'0 0.0
2014-Sep-10 11:32N 41°48' W 071°24'0 0.0
2014-Sep-10 10:32N 41°48' W 071°24'0 0.0
2014-Sep-10 09:32N 41°48' W 071°24'0 0.0
2014-Sep-10 08:26N 41°48' W 071°24'0 0.0
2014-Sep-10 07:32N 41°48' W 071°24'0 0.0
2014-Sep-10 06:32N 41°48' W 071°24'0 0.0
2014-Sep-10 05:32N 41°48' W 071°24'0 0.0
2014-Sep-10 04:32N 41°48' W 071°24'0 0.0
2014-Sep-10 03:32N 41°48' W 071°24'0 0.0
2014-Sep-10 02:32N 41°48' W 071°24'0 0.0
2014-Sep-10 01:32N 41°48' W 071°24'0 0.0
2014-Sep-10 00:32N 41°48' W 071°24'0 0.0
2014-Sep-09 23:32N 41°48' W 071°24'0 0.0
2014-Sep-09 22:32N 41°48' W 071°24'0 0.0
2014-Sep-09 21:32N 41°48' W 071°24'0 0.0
2014-Sep-09 20:26N 41°48' W 071°24'0 0.0
2014-Sep-09 19:08N 41°48' W 071°24'0 0.0
2014-Sep-09 18:32N 41°48' W 071°24'0 0.0
2014-Sep-09 16:26N 41°48' W 071°24'0 0.0
2014-Sep-09 15:32N 41°48' W 071°24'0 0.0
2014-Sep-09 14:08N 41°48' W 071°24'1 1.5
2014-Sep-09 13:33N 41°48' W 071°23'8 8.0
2014-Sep-09 12:34N 41°40' W 071°19'1111.1
2014-Sep-09 11:33N 41°29' W 071°21'9 9.0
2014-Sep-09 10:33N 41°20' W 071°21'7 7.4
2014-Sep-09 09:33N 41°13' W 071°21'6 6.2
2014-Sep-09 08:33N 41°07' W 071°21'6 6.1
2014-Sep-09 07:33N 41°01' W 071°20'9 9.0
2014-Sep-09 06:33N 40°52' W 071°17'6 6.5
2014-Sep-09 05:33N 40°45' W 071°17'7 6.6
2014-Sep-09 04:33N 40°39' W 071°16'7 7.0
2014-Sep-09 03:33N 40°32' W 071°12'1111.2
2014-Sep-09 02:33N 40°32' W 070°58'1110.9
2014-Sep-09 01:33N 40°33' W 070°43'1111.0
2014-Sep-09 00:33N 40°34' W 070°29'9 8.8
2014-Sep-08 23:33N 40°34' W 070°17'1211.7
2014-Sep-08 22:33N 40°34' W 070°02'1212.2
2014-Sep-08 21:33N 40°35' W 069°46'1312.6
2014-Sep-08 20:33N 40°34' W 069°30'1212.3
2014-Sep-08 19:33N 40°37' W 069°14'1312.9
2014-Sep-08 18:33N 40°47' W 069°03'1010.3
2014-Sep-08 17:33N 40°56' W 069°08'1110.8
2014-Sep-08 16:33N 41°06' W 069°14'1111.0
2014-Sep-08 15:33N 41°16' W 069°21'1010.0
2014-Sep-08 14:33N 41°25' W 069°26'10 9.5
2014-Sep-08 13:31N 41°33' W 069°33'9 9.3
2014-Sep-08 12:33N 41°42' W 069°38'10 9.8
2014-Sep-08 11:33N 41°50' W 069°44'  

Dump ship's entire track history